Time;durP1;ratioP1;P1;durP2;ratioP2;P2;SDS_P1;SDS_P2;PMS_P1;PMS_P2;Temp;Humidity;BMP_temperature;BMP_pressure;BME280_temperature;BME280_humidity;BME280_pressure;Samples;Min_cycle;Max_cycle;Signal;HPM_P1;HPM_P2
2021/12/11 00:02:04;;;;;;;2.40;1.80;;;;;;;17.89;42.51;101954.09;4171524;28;20099;-45
2021/12/11 00:04:09;;;;;;;2.22;1.85;;;;;;;17.91;42.32;101950.00;4169147;28;20025;-43
2021/12/11 00:06:21;;;;;;;2.10;1.65;;;;;;;17.91;42.09;101940.84;4178963;28;20040;-43
2021/12/11 00:08:27;;;;;;;2.55;1.95;;;;;;;17.92;42.46;101937.03;4179004;28;20139;-43
2021/12/11 00:10:37;;;;;;;2.45;1.90;;;;;;;17.85;42.17;101926.03;4179488;28;20037;-43
2021/12/11 00:12:55;;;;;;;2.20;1.80;;;;;;;17.87;42.22;101917.47;4170043;28;20498;-43
2021/12/11 00:15:04;;;;;;;3.03;2.10;;;;;;;17.92;42.49;101925.94;4180451;28;20103;-43
2021/12/11 00:17:07;;;;;;;3.03;1.95;;;;;;;17.91;42.42;101914.00;4166402;28;20087;-46
2021/12/11 00:19:19;;;;;;;2.15;1.92;;;;;;;17.90;42.51;101905.94;4179803;28;20438;-44
2021/12/11 00:21:23;;;;;;;3.17;2.28;;;;;;;17.92;42.21;101892.72;4170973;28;20037;-45
2021/12/11 00:23:49;;;;;;;4.10;2.20;;;;;;;17.90;42.25;101884.63;4167983;28;20041;-43
2021/12/11 00:25:51;;;;;;;2.63;2.33;;;;;;;17.93;42.06;101878.63;4167613;28;20472;-44
2021/12/11 00:28:00;;;;;;;3.95;2.22;;;;;;;17.93;42.47;101888.88;4178779;28;20309;-43
2021/12/11 00:30:10;;;;;;;2.25;2.00;;;;;;;17.90;42.41;101886.56;4175402;28;20495;-43
2021/12/11 00:32:25;;;;;;;4.78;2.45;;;;;;;17.94;42.12;101885.84;4180008;28;20099;-43
2021/12/11 00:34:30;;;;;;;2.55;2.20;;;;;;;17.96;42.07;101888.38;4180579;28;20033;-45
2021/12/11 00:36:32;;;;;;;4.22;2.15;;;;;;;17.97;42.12;101881.78;4180084;28;20411;-46
2021/12/11 00:38:37;;;;;;;5.35;2.72;;;;;;;17.96;42.38;101869.84;4170586;28;20045;-44
2021/12/11 00:40:41;;;;;;;3.75;2.25;;;;;;;17.95;42.07;101864.53;4173394;28;20090;-44
2021/12/11 00:42:48;;;;;;;2.97;2.17;;;;;;;17.94;42.24;101851.78;4170006;28;20523;-44
2021/12/11 00:44:54;;;;;;;3.67;2.60;;;;;;;17.96;42.16;101827.44;4173054;28;20034;-43
2021/12/11 00:47:13;;;;;;;2.30;2.10;;;;;;;17.93;42.50;101839.03;4170732;28;20418;-43
2021/12/11 00:49:24;;;;;;;2.15;1.92;;;;;;;17.98;42.03;101855.75;4170809;28;20539;-44
2021/12/11 00:51:25;;;;;;;4.18;2.28;;;;;;;17.99;42.09;101855.50;4175061;28;20068;-44
2021/12/11 00:53:36;;;;;;;4.60;2.78;;;;;;;17.98;42.30;101853.00;4170278;28;20045;-44
2021/12/11 00:55:41;;;;;;;2.67;2.42;;;;;;;17.98;42.07;101848.28;4173564;28;20041;-44
2021/12/11 00:57:44;;;;;;;3.30;2.38;;;;;;;17.97;42.09;101843.00;4177999;28;20045;-42
2021/12/11 00:59:46;;;;;;;3.30;2.10;;;;;;;17.94;42.10;101840.69;4180485;28;20029;-43
2021/12/11 01:01:54;;;;;;;5.43;2.40;;;;;;;17.97;42.08;101851.31;4177504;28;20037;-43
2021/12/11 01:03:58;;;;;;;3.70;2.40;;;;;;;17.93;42.28;101850.09;4180032;28;20041;-45
2021/12/11 01:06:08;;;;;;;3.75;2.22;;;;;;;17.97;42.45;101867.94;4168583;28;20103;-48
2021/12/11 01:08:22;;;;;;;3.92;2.53;;;;;;;17.98;42.13;101875.16;4177612;28;20037;-45
2021/12/11 01:10:28;;;;;;;2.60;2.35;;;;;;;17.98;42.44;101869.59;4182224;28;20048;-45
2021/12/11 01:12:50;;;;;;;3.00;2.13;;;;;;;17.99;42.43;101876.81;4182399;28;20098;-46
2021/12/11 01:15:34;;;;;;;3.88;2.60;;;;;;;17.97;42.41;101873.47;4183520;28;20029;-41
2021/12/11 01:17:58;;;;;;;3.80;2.67;;;;;;;18.02;42.40;101873.59;4130200;28;20437;-44
2021/12/11 01:20:05;;;;;;;3.58;2.55;;;;;;;18.03;42.00;101858.66;4113929;28;20482;-47
2021/12/11 01:22:35;;;;;;;2.97;2.25;;;;;;;18.01;42.35;101858.06;4141052;28;20044;-44
2021/12/11 01:24:45;;;;;;;2.55;2.25;;;;;;;18.03;42.36;101855.88;4169879;28;20049;-43
2021/12/11 01:26:50;;;;;;;3.45;2.63;;;;;;;18.02;42.45;101855.03;4169267;28;20485;-43
2021/12/11 01:28:53;;;;;;;5.45;2.58;;;;;;;18.02;42.09;101862.50;4175009;28;20040;-45
2021/12/11 01:30:56;;;;;;;4.03;2.40;;;;;;;18.01;42.24;101860.81;4177255;28;20443;-42
2021/12/11 01:32:58;;;;;;;2.33;2.10;;;;;;;17.98;42.31;101870.44;4183074;28;20029;-43
2021/12/11 01:35:06;;;;;;;3.88;2.85;;;;;;;17.99;42.15;101887.91;4174852;28;20099;-43
2021/12/11 01:37:08;;;;;;;3.10;2.20;;;;;;;18.00;42.35;101909.81;4172486;28;20443;-47
2021/12/11 01:39:15;;;;;;;7.38;2.63;;;;;;;17.99;42.45;101915.59;4173390;28;20033;-45
2021/12/11 01:41:19;;;;;;;4.15;2.50;;;;;;;17.99;42.42;101904.53;4181572;28;20098;-47
2021/12/11 01:43:23;;;;;;;3.80;2.50;;;;;;;17.93;42.38;101894.41;4182127;28;20488;-45
2021/12/11 01:45:25;;;;;;;3.42;2.28;;;;;;;17.99;42.60;101910.91;4182903;28;20037;-46
2021/12/11 01:47:31;;;;;;;4.57;2.63;;;;;;;17.99;42.25;101904.53;4182102;28;20431;-49
2021/12/11 01:49:33;;;;;;;4.03;2.88;;;;;;;17.93;42.32;101898.00;4183030;28;20122;-46
2021/12/11 01:51:41;;;;;;;5.25;2.53;;;;;;;17.99;42.47;101904.53;4182717;28;20095;-44
2021/12/11 01:53:50;;;;;;;3.35;2.42;;;;;;;17.98;42.14;101900.06;4182784;28;20123;-44
2021/12/11 01:55:57;;;;;;;6.85;2.90;;;;;;;17.99;42.43;101904.53;4182198;28;20040;-44
2021/12/11 01:58:00;;;;;;;4.57;2.30;;;;;;;17.99;42.50;101893.44;4181949;28;20423;-44
2021/12/11 02:00:16;;;;;;;5.45;2.70;;;;;;;17.97;42.73;101895.63;4181409;28;20045;-46
2021/12/11 02:02:24;;;;;;;3.60;2.38;;;;;;;17.99;42.12;101887.91;4182764;28;20550;-46
2021/12/11 02:04:27;;;;;;;4.00;2.92;;;;;;;18.00;42.14;101884.03;4182312;28;20091;-46
2021/12/11 02:06:36;;;;;;;4.05;2.80;;;;;;;18.00;42.29;101884.03;4182937;28;20083;-44
2021/12/11 02:08:40;;;;;;;4.28;3.10;;;;;;;18.01;42.18;101891.28;4182412;28;20415;-43
2021/12/11 02:11:01;;;;;;;4.65;2.60;;;;;;;18.01;42.18;101907.91;4182448;28;20041;-44
2021/12/11 02:13:07;;;;;;;6.05;3.00;;;;;;;18.00;42.38;101906.19;4179142;28;20098;-46
2021/12/11 02:15:23;;;;;;;3.67;2.85;;;;;;;18.01;42.39;101899.59;4181936;28;20464;-45
2021/12/11 02:17:46;;;;;;;4.00;2.70;;;;;;;18.00;41.89;101906.19;4181303;28;20075;-45
2021/12/11 02:19:55;;;;;;;3.10;2.55;;;;;;;18.00;42.41;101915.34;4181589;28;20029;-46
2021/12/11 02:22:02;;;;;;;5.28;3.08;;;;;;;18.01;41.96;101919.00;4182851;28;20029;-44
2021/12/11 02:24:11;;;;;;;4.00;2.83;;;;;;;18.01;42.46;101905.16;4182157;28;20531;-45
2021/12/11 02:26:15;;;;;;;4.43;2.78;;;;;;;18.01;42.11;101924.53;4182555;28;20761;-44
2021/12/11 02:28:25;;;;;;;3.60;2.77;;;;;;;18.01;42.41;101916.22;4182319;28;20032;-45
2021/12/11 02:30:33;;;;;;;3.63;2.83;;;;;;;18.01;42.08;101919.00;4182660;28;20037;-43
2021/12/11 02:32:39;;;;;;;4.90;2.88;;;;;;;18.00;42.01;101911.75;4182196;28;20484;-45
2021/12/11 02:34:57;;;;;;;3.45;2.40;;;;;;;17.99;42.43;101910.06;4181731;28;20049;-45
2021/12/11 02:37:07;;;;;;;8.68;2.90;;;;;;;17.99;42.43;101918.38;4182382;28;20028;-46
2021/12/11 02:39:29;;;;;;;4.40;2.92;;;;;;;18.00;42.11;101934.72;4182445;28;20118;-43
2021/12/11 02:41:39;;;;;;;5.80;2.88;;;;;;;18.01;42.02;101939.22;4180367;28;20548;-45
2021/12/11 02:43:46;;;;;;;5.47;3.08;;;;;;;18.01;41.98;101946.69;4171803;28;20137;-44
2021/12/11 02:46:01;;;;;;;5.68;2.90;;;;;;;18.01;42.12;101941.16;4165031;28;20080;-45
2021/12/11 02:48:18;;;;;;;4.93;2.78;;;;;;;18.01;41.95;101924.53;4164837;28;20484;-44
2021/12/11 02:50:35;;;;;;;4.25;2.58;;;;;;;18.01;42.04;101902.38;4165229;28;20084;-44
2021/12/11 02:52:42;;;;;;;4.82;3.00;;;;;;;18.02;42.08;101890.22;4165878;28;20445;-44
2021/12/11 02:54:48;;;;;;;4.40;2.92;;;;;;;18.00;42.33;101868.28;4164814;28;20095;-46
2021/12/11 02:56:55;;;;;;;3.20;2.75;;;;;;;18.00;42.25;101850.81;4164955;28;20099;-46
2021/12/11 02:59:01;;;;;;;6.28;2.90;;;;;;;18.00;42.04;101857.19;4171653;28;20430;-44
2021/12/11 03:01:25;;;;;;;8.52;3.17;;;;;;;18.00;42.15;101851.66;4181787;28;20037;-49
2021/12/11 03:03:35;;;;;;;3.50;2.83;;;;;;;18.01;41.96;101869.13;4181388;28;20091;-45
2021/12/11 03:06:05;;;;;;;4.40;3.10;;;;;;;17.99;41.99;101861.03;4181829;28;20094;-46
2021/12/11 03:08:11;;;;;;;3.45;2.70;;;;;;;18.02;41.95;101834.81;4180917;28;20427;-45
2021/12/11 03:10:14;;;;;;;3.47;2.80;;;;;;;17.98;41.92;101836.38;4181941;28;20045;-45
2021/12/11 03:12:18;;;;;;;5.43;2.80;;;;;;;17.99;42.13;101838.06;4181336;28;20098;-46
2021/12/11 03:14:21;;;;;;;4.53;3.03;;;;;;;18.00;42.20;101845.28;4179953;28;20033;-45
2021/12/11 03:16:30;;;;;;;5.05;2.83;;;;;;;18.00;42.01;101845.28;4167363;28;20095;-46
2021/12/11 03:18:31;;;;;;;5.15;3.08;;;;;;;18.01;42.00;101844.22;4164408;28;20427;-44
2021/12/11 03:20:36;;;;;;;4.28;2.50;;;;;;;18.00;42.01;101834.19;4164495;28;20477;-43
2021/12/11 03:22:37;;;;;;;4.60;2.80;;;;;;;18.00;42.29;101823.13;4164481;28;20427;-44
2021/12/11 03:24:39;;;;;;;8.13;2.95;;;;;;;18.00;42.41;101820.34;4164514;28;20376;-44
2021/12/11 03:26:45;;;;;;;3.83;2.80;;;;;;;18.00;42.12;101812.03;4165352;28;20145;-44
2021/12/11 03:28:47;;;;;;;3.70;2.67;;;;;;;18.00;42.31;101807.34;4164456;28;20150;-44
2021/12/11 03:30:59;;;;;;;3.85;2.92;;;;;;;17.98;42.30;101803.13;4165192;28;20469;-44
2021/12/11 03:33:07;;;;;;;5.78;2.90;;;;;;;18.00;42.39;101800.97;4164584;28;20037;-47
2021/12/11 03:35:13;;;;;;;4.40;2.70;;;;;;;18.00;42.30;101796.25;4164064;28;20033;-45
2021/12/11 03:37:17;;;;;;;4.30;2.95;;;;;;;17.98;42.15;101792.06;4164968;28;20083;-46
2021/12/11 03:39:24;;;;;;;3.75;2.88;;;;;;;17.92;42.18;101771.72;4179380;28;20099;-44
2021/12/11 03:41:27;;;;;;;3.95;2.67;;;;;;;18.00;42.14;101778.81;4165418;28;20038;-46
2021/12/11 03:43:29;;;;;;;4.95;3.22;;;;;;;17.99;42.14;101782.66;4165323;28;20424;-48
2021/12/11 03:45:37;;;;;;;2.80;2.40;;;;;;;17.98;42.26;101775.44;4164682;28;20419;-46
2021/12/11 03:47:44;;;;;;;5.20;3.30;;;;;;;17.98;42.00;101787.38;4164483;28;20076;-45
2021/12/11 03:49:46;;;;;;;5.07;2.72;;;;;;;17.98;41.88;101790.13;4164001;28;20118;-47
2021/12/11 03:51:50;;;;;;;3.42;2.88;;;;;;;17.98;41.94;101781.81;4164534;28;20033;-46
2021/12/11 03:53:52;;;;;;;4.78;2.75;;;;;;;17.98;42.31;101794.84;4164140;28;20037;-46
2021/12/11 03:55:57;;;;;;;3.92;2.70;;;;;;;17.97;42.40;101796.75;4163713;28;20103;-48
2021/12/11 03:58:00;;;;;;;5.32;2.70;;;;;;;17.91;42.26;101774.72;4164448;28;20025;-49
2021/12/11 04:00:05;;;;;;;5.40;2.53;;;;;;;17.98;42.23;101778.22;4164187;28;20099;-45
2021/12/11 04:02:11;;;;;;;5.57;3.00;;;;;;;17.97;42.20;101784.84;4166370;28;20114;-45
2021/12/11 04:04:18;;;;;;;7.78;3.30;;;;;;;17.67;42.13;101741.44;4181038;28;20090;-46
2021/12/11 04:06:20;;;;;;;4.00;3.05;;;;;;;17.97;42.00;101790.38;4180322;28;20041;-43
2021/12/11 04:08:28;;;;;;;3.83;2.78;;;;;;;17.97;41.93;101793.16;4179780;28;20771;-45
2021/12/11 04:10:30;;;;;;;4.60;3.00;;;;;;;17.96;42.31;101789.53;4180241;28;20040;-49
2021/12/11 04:12:32;;;;;;;3.95;2.72;;;;;;;17.97;42.43;101782.91;4180283;28;20111;-45
2021/12/11 04:14:36;;;;;;;4.35;2.70;;;;;;;17.97;42.45;101773.78;4179765;28;20053;-47
2021/12/11 04:16:38;;;;;;;3.90;2.97;;;;;;;17.96;42.18;101769.28;4179534;28;20431;-45
2021/12/11 04:18:40;;;;;;;4.22;2.85;;;;;;;17.95;42.34;101770.38;4178325;28;20041;-46
2021/12/11 04:20:44;;;;;;;5.95;2.97;;;;;;;17.96;41.97;101783.13;4179745;28;20045;-44
2021/12/11 04:22:46;;;;;;;4.22;2.65;;;;;;;17.98;42.40;101775.44;4166689;28;20033;-48
2021/12/11 04:24:48;;;;;;;3.28;2.78;;;;;;;17.96;41.94;101766.53;4180357;28;20090;-45
2021/12/11 04:26:50;;;;;;;3.30;3.00;;;;;;;17.91;42.26;101766.41;4180079;28;20041;-45
2021/12/11 04:28:52;;;;;;;4.47;3.00;;;;;;;17.90;42.08;101750.88;4176256;28;20476;-45
2021/12/11 04:31:02;;;;;;;4.63;2.95;;;;;;;17.95;42.04;101754.59;4168860;28;20471;-45
2021/12/11 04:33:04;;;;;;;5.70;3.15;;;;;;;17.96;42.39;101749.91;4167551;28;20041;-44
2021/12/11 04:35:08;;;;;;;3.22;2.65;;;;;;;17.94;42.03;101757.63;4180597;28;20037;-44
2021/12/11 04:37:16;;;;;;;5.73;3.13;;;;;;;17.94;42.42;101763.16;4179882;28;20041;-48
2021/12/11 04:39:23;;;;;;;4.35;3.13;;;;;;;17.95;42.05;101753.75;4171782;28;20475;-42
2021/12/11 04:41:34;;;;;;;5.25;3.17;;;;;;;17.93;42.00;101744.88;4184317;28;20190;-45
2021/12/11 04:43:36;;;;;;;4.38;3.03;;;;;;;17.92;42.10;101732.94;4184025;28;20506;-45
2021/12/11 04:45:44;;;;;;;5.63;3.85;;;;;;;17.87;42.33;101734.75;4185522;28;20029;-46
2021/12/11 04:47:59;;;;;;;11.25;6.85;;;;;;;17.93;42.56;101729.09;4184317;28;20033;-44
2021/12/11 04:50:07;;;;;;;12.55;8.73;;;;;;;17.94;42.40;101735.47;4185384;28;20037;-47
2021/12/11 04:52:38;;;;;;;18.55;11.63;;;;;;;17.94;42.63;101741.00;4185593;28;20088;-48
2021/12/11 05:10:04;;;;;;;41.35;26.35;;;;;;;17.96;46.53;101713.91;4185622;28;20488;-44
2021/12/11 05:12:58;;;;;;;43.20;27.20;;;;;;;17.95;46.53;101703.91;4185985;28;20032;-44
2021/12/11 05:14:41;;;;;;;50.13;29.27;;;;;;;17.99;47.66;101710.66;4178863;28;20045;-43
2021/12/11 05:16:43;;;;;;;47.17;28.67;;;;;;;17.97;47.66;101696.22;4184980;28;20095;-44
2021/12/11 05:18:46;;;;;;;48.25;29.85;;;;;;;17.97;48.41;101691.53;4184202;28;20083;-47
2021/12/11 05:20:54;;;;;;;52.20;30.20;;;;;;;17.99;48.77;101682.97;4181018;28;20432;-46
2021/12/11 05:22:56;;;;;;;47.20;30.05;;;;;;;17.99;49.22;101683.81;4184974;28;20542;-47
2021/12/11 05:24:58;;;;;;;48.08;30.33;;;;;;;17.99;49.22;101682.97;4185294;28;20036;-45
2021/12/11 05:27:01;;;;;;;50.97;31.08;;;;;;;17.99;49.51;101674.66;4178206;28;20033;-50
2021/12/11 05:29:05;;;;;;;51.72;31.08;;;;;;;17.99;50.40;101669.97;4169377;28;20038;-43
2021/12/11 05:31:08;;;;;;;49.95;30.35;;;;;;;17.98;50.28;101667.44;4168629;28;20130;-45
2021/12/11 05:33:10;;;;;;;53.05;30.45;;;;;;;17.96;50.72;101652.97;4169463;28;20431;-45
2021/12/11 05:35:12;;;;;;;50.90;30.48;;;;;;;17.99;50.90;101639.50;4169203;28;20381;-45
2021/12/11 05:37:14;;;;;;;51.80;31.80;;;;;;;18.00;51.55;101634.78;4168304;28;20448;-47
2021/12/11 05:39:19;;;;;;;49.00;30.83;;;;;;;18.01;51.06;101630.97;4177544;28;20103;-46
2021/12/11 05:41:23;;;;;;;51.92;30.95;;;;;;;18.00;51.59;101629.25;4169368;28;20033;-46
2021/12/11 05:43:25;;;;;;;51.33;30.02;;;;;;;18.01;51.87;101625.44;4168673;28;20029;-45
2021/12/11 05:45:26;;;;;;;48.63;30.25;;;;;;;18.02;51.99;101613.25;4168993;28;20099;-45
2021/12/11 05:47:28;;;;;;;47.40;29.92;;;;;;;18.01;52.48;101600.50;4166986;28;20046;-48
2021/12/11 05:49:30;;;;;;;51.35;31.13;;;;;;;17.99;52.54;101588.81;4171405;28;21888;-45
2021/12/11 05:51:38;;;;;;;48.15;29.40;;;;;;;17.98;52.09;101570.53;4183080;28;20542;-47
2021/12/11 05:53:39;;;;;;;51.88;29.92;;;;;;;17.98;52.69;101573.28;4167173;28;20053;-45
2021/12/11 05:55:42;;;;;;;50.67;30.10;;;;;;;17.97;52.53;101575.22;4173076;28;20048;-45
2021/12/11 05:57:52;;;;;;;48.42;30.00;;;;;;;17.97;52.51;101568.84;4174365;28;20420;-45
2021/12/11 05:59:54;;;;;;;45.65;28.45;;;;;;;17.97;52.48;101569.69;4166573;28;20087;-46
2021/12/11 06:02:10;;;;;;;47.40;29.17;;;;;;;17.96;52.49;101568.00;4166258;28;20087;-46
2021/12/11 06:04:16;;;;;;;48.90;29.42;;;;;;;17.96;52.62;101573.56;4183000;28;20452;-47
2021/12/11 06:06:18;;;;;;;48.38;28.30;;;;;;;17.98;52.39;101585.22;4182458;28;20025;-45
2021/12/11 06:08:21;;;;;;;49.88;29.63;;;;;;;17.99;52.65;101583.28;4170286;28;20107;-46
2021/12/11 06:10:24;;;;;;;43.78;27.05;;;;;;;17.98;52.11;101576.06;4176412;28;20103;-47
2021/12/11 06:12:28;;;;;;;47.33;28.65;;;;;;;17.97;52.03;101579.91;4175550;28;20033;-45
2021/12/11 06:14:30;;;;;;;44.65;27.98;;;;;;;17.96;52.25;101583.75;4173072;28;20106;-43
2021/12/11 06:16:33;;;;;;;44.10;27.02;;;;;;;17.92;52.11;101572.34;4181519;28;20430;-46
2021/12/11 06:18:34;;;;;;;41.88;27.48;;;;;;;17.95;51.90;101579.31;4169159;28;20037;-45
2021/12/11 06:20:36;;;;;;;46.80;28.00;;;;;;;17.95;52.14;101573.78;4181975;28;20037;-44
2021/12/11 06:22:38;;;;;;;43.80;25.52;;;;;;;17.91;51.74;101569.81;4182502;28;20440;-46
2021/12/11 06:24:39;;;;;;;40.17;25.73;;;;;;;17.94;52.13;101580.41;4166544;28;20477;-48
2021/12/11 06:26:41;;;;;;;43.35;26.45;;;;;;;17.95;51.60;101582.06;4165940;28;20076;-47
2021/12/11 06:28:43;;;;;;;46.42;26.27;;;;;;;17.88;51.67;101560.09;4166191;28;20029;-45
2021/12/11 06:30:45;;;;;;;42.80;25.15;;;;;;;17.95;51.45;101565.47;4166115;28;20037;-44
2021/12/11 06:32:51;;;;;;;38.45;24.00;;;;;;;17.96;51.08;101556.94;4165557;28;20041;-46
2021/12/11 06:34:55;;;;;;;41.40;26.02;;;;;;;17.95;51.30;101543.31;4165552;28;20045;-46
2021/12/11 06:36:56;;;;;;;44.53;25.65;;;;;;;17.99;50.94;101527.88;4165636;28;20095;-46
2021/12/11 06:39:03;;;;;;;38.70;23.92;;;;;;;17.98;51.22;101526.22;4164954;28;20099;-43
2021/12/11 06:41:07;;;;;;;35.67;24.13;;;;;;;17.97;50.53;101533.69;4165682;28;20072;-45
2021/12/11 06:43:09;;;;;;;43.20;24.20;;;;;;;17.98;50.94;101528.97;4165904;28;20025;-45
2021/12/11 06:45:11;;;;;;;41.08;24.33;;;;;;;17.98;50.63;101534.53;4164234;28;20088;-44
2021/12/11 06:47:14;;;;;;;36.63;23.35;;;;;;;17.99;50.50;101533.44;4165490;28;20025;-45
2021/12/11 06:49:16;;;;;;;40.05;23.02;;;;;;;17.97;50.35;101525.38;4165619;28;20103;-47
2021/12/11 06:51:17;;;;;;;38.00;23.08;;;;;;;17.97;50.36;101514.31;4180329;28;20045;-47
2021/12/11 06:53:50;;;;;;;33.53;21.95;;;;;;;17.93;49.77;101528.88;4164884;28;20041;-44
2021/12/11 06:55:52;;;;;;;37.55;23.20;;;;;;;17.96;50.22;101532.00;4180520;28;20058;-44
2021/12/11 06:57:54;;;;;;;36.90;22.52;;;;;;;17.98;50.06;101545.59;4165146;28;20080;-47
2021/12/11 06:59:58;;;;;;;35.22;22.35;;;;;;;17.97;49.80;101536.47;4164460;28;20025;-44
2021/12/11 07:02:00;;;;;;;34.03;21.90;;;;;;;17.93;49.65;101523.34;4164547;28;20084;-44
2021/12/11 07:04:02;;;;;;;30.75;20.05;;;;;;;17.95;49.87;101526.69;4165448;28;20342;-47
2021/12/11 07:06:04;;;;;;;38.38;22.92;;;;;;;17.94;49.82;101502.88;4165326;28;20092;-49
2021/12/11 07:08:07;;;;;;;33.40;20.63;;;;;;;17.91;49.78;101508.91;4164607;28;20103;-48
2021/12/11 07:10:13;;;;;;;31.77;20.80;;;;;;;17.94;49.74;101519.50;4165280;28;20037;-47
2021/12/11 07:12:14;;;;;;;;;;;;;;;17.92;49.68;101521.69;4171427;28;20037;-46
2021/12/11 07:14:18;;;;;;;33.83;20.92;;;;;;;17.98;49.04;101509.59;4181672;28;19971;-46
2021/12/11 07:16:19;;;;;;;35.53;20.95;;;;;;;17.96;49.20;101511.75;4166577;28;20045;-44
2021/12/11 07:18:21;;;;;;;31.40;19.63;;;;;;;17.97;49.06;101506.00;4164890;28;20376;-48
2021/12/11 07:20:22;;;;;;;31.63;19.60;;;;;;;17.96;49.31;101493.25;4165071;28;20063;-44
2021/12/11 07:22:24;;;;;;;33.67;19.45;;;;;;;17.96;49.09;101484.06;4165045;28;20049;-45
2021/12/11 07:24:32;;;;;;;30.88;19.13;;;;;;;17.90;48.90;101496.97;4169089;28;20440;-48
2021/12/11 07:26:35;;;;;;;30.17;19.48;;;;;;;17.92;48.91;101494.00;4165135;28;20029;-44
2021/12/11 07:28:38;;;;;;;29.23;18.63;;;;;;;17.93;49.11;101479.03;4168481;28;20102;-44
2021/12/11 07:30:43;;;;;;;28.02;18.40;;;;;;;17.92;48.82;101477.38;4178153;28;20037;-43
2021/12/11 07:32:44;;;;;;;31.20;19.10;;;;;;;17.93;48.83;101484.59;4179955;28;20106;-45
2021/12/11 07:34:46;;;;;;;29.00;18.35;;;;;;;17.93;48.86;101479.03;4169931;28;20385;-44
2021/12/11 07:36:50;;;;;;;30.75;18.58;;;;;;;17.91;48.96;101470.97;4181019;28;20037;-46
2021/12/11 07:38:52;;;;;;;25.60;16.75;;;;;;;17.90;48.97;101465.69;4179179;28;20038;-44
2021/12/11 07:40:56;;;;;;;27.02;17.20;;;;;;;17.91;48.66;101476.50;4164889;28;20476;-43
2021/12/11 07:42:58;;;;;;;28.50;17.87;;;;;;;17.93;48.71;101471.56;4164068;28;20096;-48
2021/12/11 07:44:59;;;;;;;29.33;17.50;;;;;;;17.90;48.49;101454.63;4164506;28;20041;-48
2021/12/11 07:47:01;;;;;;;27.70;17.48;;;;;;;17.91;48.39;101457.13;4163997;28;20041;-43
2021/12/11 07:49:06;;;;;;;25.23;17.02;;;;;;;17.90;48.42;101454.63;4164869;28;20033;-44
2021/12/11 07:51:09;;;;;;;25.88;15.82;;;;;;;17.91;48.77;101470.97;4166756;28;20045;-45
2021/12/11 07:53:11;;;;;;;27.10;17.08;;;;;;;17.93;48.59;101471.56;4180712;28;20067;-44
2021/12/11 07:55:15;;;;;;;26.52;16.23;;;;;;;17.92;48.39;101471.84;4180456;28;20036;-44
2021/12/11 07:57:16;;;;;;;24.58;15.07;;;;;;;17.89;48.57;101466.78;4179937;28;20090;-46
2021/12/11 07:59:21;;;;;;;27.15;16.13;;;;;;;17.91;48.28;101470.13;4179295;28;20426;-44
2021/12/11 08:01:24;;;;;;;26.40;17.00;;;;;;;17.91;48.20;101451.59;4180610;28;20036;-43
2021/12/11 08:03:26;;;;;;;24.38;15.98;;;;;;;17.91;48.51;101442.44;4180238;28;20036;-45
2021/12/11 08:05:28;;;;;;;24.55;16.05;;;;;;;17.89;47.98;101439.94;4180454;28;20095;-44
2021/12/11 08:07:29;;;;;;;25.25;15.85;;;;;;;17.91;47.97;101450.75;4180224;28;20087;-45
2021/12/11 08:09:31;;;;;;;27.55;15.48;;;;;;;17.89;48.29;101450.16;4180952;28;20037;-44
2021/12/11 08:11:35;;;;;;;24.73;15.75;;;;;;;17.88;48.03;101449.34;4180453;28;20074;-47
2021/12/11 08:13:38;;;;;;;24.15;15.00;;;;;;;17.89;48.16;101450.16;4180373;28;20041;-46
2021/12/11 08:15:50;;;;;;;24.73;14.65;;;;;;;17.89;48.03;101450.16;4175891;28;20033;-45
2021/12/11 08:17:54;;;;;;;26.33;16.13;;;;;;;17.88;48.16;101454.03;4164161;28;20021;-45
2021/12/11 08:19:55;;;;;;;21.63;13.88;;;;;;;17.87;48.17;101446.78;4164474;28;20130;-43
2021/12/11 08:21:59;;;;;;;22.02;14.18;;;;;;;17.87;48.00;101442.13;4164375;28;20045;-43
2021/12/11 08:24:06;;;;;;;24.55;15.10;;;;;;;17.86;47.83;101431.28;4164070;28;20048;-43
2021/12/11 08:26:07;;;;;;;20.65;14.02;;;;;;;17.87;47.77;101441.25;4163900;28;20099;-43
2021/12/11 08:28:12;;;;;;;21.33;14.40;;;;;;;17.83;48.07;101426.25;4170431;28;20106;-45
2021/12/11 08:30:14;;;;;;;20.50;13.30;;;;;;;17.80;48.01;101421.22;4175360;28;20034;-42
2021/12/11 08:32:16;;;;;;;23.45;14.75;;;;;;;17.68;48.02;101399.91;4164341;28;20040;-43
2021/12/11 08:34:18;;;;;;;18.75;12.93;;;;;;;17.85;47.96;101426.84;4167965;28;20096;-47
2021/12/11 08:36:21;;;;;;;20.92;12.85;;;;;;;17.84;47.59;101425.16;4164970;28;20103;-45
2021/12/11 08:38:23;;;;;;;19.75;13.25;;;;;;;17.84;47.61;101414.09;4177684;28;20102;-43
2021/12/11 08:40:28;;;;;;;18.75;12.88;;;;;;;17.83;47.54;101404.94;4179946;28;20045;-43
2021/12/11 08:42:30;;;;;;;20.80;13.55;;;;;;;17.83;47.77;101407.72;4173866;28;20111;-43
2021/12/11 08:44:35;;;;;;;18.83;12.88;;;;;;;17.81;47.55;101397.97;4170738;28;20090;-45
2021/12/11 08:46:39;;;;;;;18.38;12.25;;;;;;;17.82;47.83;101394.94;4180827;28;20041;-42
2021/12/11 08:48:45;;;;;;;19.42;12.75;;;;;;;17.82;47.69;101389.41;4178932;28;20067;-47
2021/12/11 08:50:50;;;;;;;19.83;12.77;;;;;;;17.83;47.39;101379.19;4162987;28;20099;-45
2021/12/11 08:52:55;;;;;;;19.27;12.10;;;;;;;17.82;47.35;101381.09;4178994;28;20045;-44
2021/12/11 08:55:04;;;;;;;17.98;12.35;;;;;;;17.82;47.69;101385.78;4179379;28;20037;-43
2021/12/11 08:57:08;;;;;;;19.77;11.98;;;;;;;17.81;47.74;101384.97;4163744;28;20506;-45
2021/12/11 08:59:14;;;;;;;19.42;12.23;;;;;;;17.81;47.72;101381.34;4176492;28;20037;-47
2021/12/11 09:01:54;;;;;;;19.27;11.27;;;;;;;17.77;47.68;101386.53;4166716;28;20053;-44
2021/12/11 09:04:04;;;;;;;17.45;11.25;;;;;;;17.77;47.50;101373.53;4163861;28;20179;-47
2021/12/11 09:06:20;;;;;;;19.33;11.00;;;;;;;17.77;47.42;101370.78;4162148;28;20037;-45
2021/12/11 09:08:57;;;;;;;15.82;11.20;;;;;;;17.76;47.34;101351.66;4164242;28;20869;-46
2021/12/11 09:10:58;;;;;;;18.58;11.35;;;;;;;17.80;47.26;101355.59;4143546;28;20103;-47
2021/12/11 09:13:12;;;;;;;16.38;11.02;;;;;;;17.78;47.60;101333.72;4163972;28;20115;-44
2021/12/11 09:15:38;;;;;;;18.27;10.70;;;;;;;17.77;47.37;101323.72;4176899;28;20029;-48
2021/12/11 09:17:52;;;;;;;16.67;10.57;;;;;;;17.80;47.38;101313.25;4179384;28;20029;-41
2021/12/11 09:20:08;;;;;;;16.75;11.43;;;;;;;17.77;47.24;101326.47;4170490;28;20095;-43
2021/12/11 09:22:26;;;;;;;15.02;9.77;;;;;;;17.79;47.34;101326.25;4164588;28;20075;-46
2021/12/11 09:24:30;;;;;;;17.08;11.07;;;;;;;17.78;47.47;101317.09;4176643;28;20040;-45
2021/12/11 09:26:50;;;;;;;16.23;10.13;;;;;;;17.77;47.14;101309.88;4183487;28;20049;-45
2021/12/11 09:28:59;;;;;;;16.13;10.65;;;;;;;17.77;47.13;101306.28;4181516;28;20103;-49
2021/12/11 09:31:16;;;;;;;15.38;10.32;;;;;;;17.73;47.10;101297.66;4171173;28;20037;-47
2021/12/11 09:33:24;;;;;;;15.77;10.02;;;;;;;17.72;47.20;101284.84;4168005;28;20087;-47
2021/12/11 09:35:31;;;;;;;13.85;10.15;;;;;;;17.73;47.53;101278.28;4176970;28;20037;-44
2021/12/11 09:37:33;;;;;;;16.55;10.70;;;;;;;17.72;47.30;101284.00;4176524;28;20083;-43
2021/12/11 09:39:50;;;;;;;14.30;9.65;;;;;;;17.73;47.34;101275.50;4183230;28;20049;-45
2021/12/11 09:41:51;;;;;;;15.32;10.05;;;;;;;17.73;47.13;101269.97;4170029;28;20103;-42
2021/12/11 09:44:08;;;;;;;14.52;9.98;;;;;;;17.72;47.40;101272.94;4166657;28;20045;-43
2021/12/11 09:46:14;;;;;;;14.85;9.93;;;;;;;17.73;47.25;101258.91;4169985;28;20083;-43
2021/12/11 09:48:18;;;;;;;15.05;10.13;;;;;;;17.74;47.03;101259.75;4178578;28;20044;-43
2021/12/11 09:50:30;;;;;;;14.65;10.32;;;;;;;17.70;47.05;101259.38;4183074;28;20045;-44
2021/12/11 09:52:32;;;;;;;15.23;9.60;;;;;;;17.70;47.29;101239.97;4169136;28;20455;-45
2021/12/11 09:54:35;;;;;;;14.02;9.88;;;;;;;17.73;47.05;101252.47;4166603;28;20099;-46
2021/12/11 09:56:58;;;;;;;13.85;9.38;;;;;;;17.69;47.36;101246.63;4170259;28;20045;-43
2021/12/11 09:59:03;;;;;;;13.05;9.18;;;;;;;17.72;47.32;101245.25;4174331;28;20091;-43